createdAt,value
2022-10-16T00:00:18.274Z,11.02
2022-10-16T00:05:15.310Z,13.10
2022-10-16T00:07:43.310Z,11.82
2022-10-16T00:10:11.405Z,10.50
2022-10-16T00:12:39.493Z,12.13
2022-10-16T00:15:10.120Z,10.25
2022-10-16T00:17:38.148Z,9.98
2022-10-16T00:20:07.354Z,10.52
2022-10-16T00:22:35.417Z,10.18
2022-10-16T00:25:03.435Z,16.08
2022-10-16T00:27:31.480Z,9.73
2022-10-16T00:32:33.902Z,10.00
2022-10-16T00:35:02.106Z,11.40
2022-10-16T00:37:30.087Z,9.55
2022-10-16T00:39:58.156Z,10.48
2022-10-16T00:42:27.297Z,9.48
2022-10-16T00:44:57.704Z,11.15
2022-10-16T00:47:28.605Z,10.45
2022-10-16T00:50:01.970Z,10.10
2022-10-16T00:52:29.965Z,10.07
2022-10-16T00:54:57.981Z,10.13
2022-10-16T00:57:26.036Z,9.05
2022-10-16T00:59:54.105Z,9.27
2022-10-16T01:02:22.191Z,9.85
2022-10-16T01:04:51.091Z,9.45
2022-10-16T01:07:27.095Z,10.05
2022-10-16T01:10:00.692Z,9.32
2022-10-16T01:12:37.608Z,10.07
2022-10-16T01:15:10.060Z,9.13
2022-10-16T01:17:41.087Z,13.73
2022-10-16T01:20:12.637Z,9.07
2022-10-16T01:22:46.554Z,9.43
2022-10-16T01:25:18.957Z,10.57
2022-10-16T01:27:48.373Z,9.70
2022-10-16T01:30:19.003Z,9.38
2022-10-16T01:32:48.845Z,9.18
2022-10-16T01:35:19.821Z,8.88
2022-10-16T01:37:50.334Z,10.60
2022-10-16T01:40:19.325Z,9.25
2022-10-16T01:42:50.171Z,10.57
2022-10-16T01:45:19.126Z,9.65
2022-10-16T01:47:47.539Z,9.70
2022-10-16T01:50:15.912Z,12.07
2022-10-16T01:52:45.669Z,10.27
2022-10-16T01:55:14.747Z,8.20
2022-10-16T01:57:44.997Z,10.63
2022-10-16T02:00:15.225Z,10.43
2022-10-16T02:02:43.581Z,10.07
2022-10-16T02:05:14.712Z,10.45
2022-10-16T02:07:43.202Z,11.05
2022-10-16T02:10:11.551Z,8.88
2022-10-16T02:12:40.977Z,8.95
2022-10-16T02:15:09.570Z,9.88
2022-10-16T02:17:38.996Z,10.02
2022-10-16T02:20:07.460Z,9.38
2022-10-16T02:22:38.512Z,9.07
2022-10-16T02:25:08.541Z,9.88
2022-10-16T02:27:38.637Z,9.75
2022-10-16T02:30:09.628Z,10.95
2022-10-16T02:32:40.656Z,11.30
2022-10-16T02:35:09.349Z,9.82
2022-10-16T02:37:37.363Z,11.10
2022-10-16T02:40:06.063Z,10.60
2022-10-16T02:42:35.738Z,9.90
2022-10-16T02:45:03.842Z,11.30
2022-10-16T02:47:31.847Z,14.52
2022-10-16T02:50:01.242Z,9.02
2022-10-16T02:52:29.519Z,9.07
2022-10-16T02:54:57.743Z,7.25
2022-10-16T02:57:26.083Z,10.75
2022-10-16T02:59:54.270Z,8.85
2022-10-16T03:02:22.354Z,10.07
2022-10-16T03:04:50.410Z,9.13
2022-10-16T03:07:19.814Z,13.70
2022-10-16T03:09:47.818Z,14.95
2022-10-16T03:12:15.776Z,14.55
2022-10-16T03:14:43.775Z,10.05
2022-10-16T03:17:11.793Z,9.90
2022-10-16T03:19:39.811Z,8.60
2022-10-16T03:22:07.780Z,9.93
2022-10-16T03:24:37.133Z,8.20
2022-10-16T03:27:05.166Z,8.48
2022-10-16T03:29:33.767Z,9.02
2022-10-16T03:32:01.827Z,14.48
2022-10-16T03:34:29.939Z,8.55
2022-10-16T03:36:58.216Z,8.57
2022-10-16T03:39:26.323Z,9.23
2022-10-16T03:41:55.703Z,9.23
2022-10-16T03:44:23.801Z,9.32
2022-10-16T03:46:51.837Z,9.55
2022-10-16T03:49:19.910Z,9.27
2022-10-16T03:51:47.906Z,9.10
2022-10-16T03:54:16.018Z,8.00
2022-10-16T03:56:44.026Z,9.23
2022-10-16T03:59:13.368Z,9.85
2022-10-16T04:01:41.481Z,9.75
2022-10-16T04:04:09.448Z,8.82
2022-10-16T04:06:37.447Z,8.07
2022-10-16T04:09:05.453Z,7.80
2022-10-16T04:11:33.530Z,8.30
2022-10-16T04:14:01.968Z,8.63
2022-10-16T04:16:31.327Z,8.90
2022-10-16T04:18:59.399Z,7.97
2022-10-16T04:21:27.407Z,9.48
2022-10-16T04:23:55.407Z,8.60
2022-10-16T04:26:23.420Z,9.70
2022-10-16T04:28:51.448Z,9.73
2022-10-16T04:31:19.550Z,9.10
2022-10-16T04:33:48.898Z,7.68
2022-10-16T04:36:16.928Z,9.07
2022-10-16T04:38:44.920Z,9.20
2022-10-16T04:41:13.024Z,9.00
2022-10-16T04:43:41.394Z,8.52
2022-10-16T04:46:11.074Z,7.93
2022-10-16T04:48:39.054Z,9.07
2022-10-16T04:51:08.543Z,8.13
2022-10-16T04:53:36.633Z,8.45
2022-10-16T04:56:04.696Z,8.27
2022-10-16T04:58:32.679Z,10.98
2022-10-16T05:01:00.691Z,8.85
2022-10-16T05:03:28.678Z,8.77
2022-10-16T05:05:57.598Z,8.23
2022-10-16T05:08:26.996Z,9.07
2022-10-16T05:10:55.040Z,7.45
2022-10-16T05:13:24.159Z,7.97
2022-10-16T05:15:52.205Z,8.18
2022-10-16T05:18:20.263Z,7.95
2022-10-16T05:20:48.281Z,8.35
2022-10-16T05:23:16.296Z,8.38
2022-10-16T05:25:45.650Z,8.20
2022-10-16T05:28:13.699Z,9.10
2022-10-16T05:30:41.703Z,8.57
2022-10-16T05:33:09.696Z,7.72
2022-10-16T05:35:37.674Z,7.60
2022-10-16T05:38:05.692Z,7.68
2022-10-16T05:40:33.732Z,8.10
2022-10-16T05:43:03.093Z,8.27
2022-10-16T05:45:31.113Z,9.65
2022-10-16T05:47:59.174Z,8.13
2022-10-16T05:50:27.171Z,14.52
2022-10-16T05:52:55.192Z,8.43
2022-10-16T05:55:23.359Z,7.50
2022-10-16T05:57:51.557Z,7.78
2022-10-16T06:00:21.063Z,11.27
2022-10-16T06:02:49.085Z,8.40
2022-10-16T06:05:17.156Z,9.10
2022-10-16T06:07:45.170Z,8.73
2022-10-16T06:10:13.173Z,10.48
2022-10-16T06:12:41.157Z,7.78
2022-10-16T06:15:09.986Z,10.38
2022-10-16T06:17:39.479Z,9.10
2022-10-16T06:20:08.184Z,8.70
2022-10-16T06:22:36.178Z,7.80
2022-10-16T06:25:04.369Z,8.13
2022-10-16T06:27:32.351Z,8.70
2022-10-16T06:30:00.444Z,8.25
2022-10-16T06:32:29.188Z,8.13
2022-10-16T06:34:58.551Z,11.60
2022-10-16T06:37:27.093Z,8.40
2022-10-16T06:39:55.368Z,8.80
2022-10-16T06:42:23.657Z,8.38
2022-10-16T06:44:52.668Z,8.32
2022-10-16T06:47:20.654Z,8.98
2022-10-16T06:49:51.883Z,7.80
2022-10-16T06:52:23.981Z,8.57
2022-10-16T06:54:52.410Z,9.90
2022-10-16T06:57:20.388Z,8.88
2022-10-16T06:59:51.011Z,9.38
2022-10-16T07:02:21.339Z,8.38
2022-10-16T07:04:49.407Z,9.00
2022-10-16T07:07:17.419Z,7.70
2022-10-16T07:09:46.773Z,7.80
2022-10-16T07:12:14.765Z,9.05
2022-10-16T07:14:42.809Z,8.48
2022-10-16T07:17:10.914Z,8.98
2022-10-16T07:19:39.003Z,9.23
2022-10-16T07:22:07.517Z,8.15
2022-10-16T07:24:35.498Z,8.95
2022-10-16T07:27:05.027Z,7.50
2022-10-16T07:29:33.050Z,8.02
2022-10-16T07:32:01.075Z,7.88
2022-10-16T07:34:29.098Z,8.23
2022-10-16T07:36:57.064Z,7.47
2022-10-16T07:39:25.108Z,7.70
2022-10-16T07:41:53.182Z,8.63
2022-10-16T07:44:22.651Z,8.07
2022-10-16T07:46:50.699Z,8.25
2022-10-16T07:49:18.685Z,7.97
2022-10-16T07:51:46.679Z,10.73
2022-10-16T07:54:14.682Z,8.15
2022-10-16T07:56:43.944Z,9.25
2022-10-16T07:59:12.225Z,7.43
2022-10-16T08:01:43.098Z,8.77
2022-10-16T08:04:11.434Z,7.88
2022-10-16T08:06:40.272Z,7.20
2022-10-16T08:09:08.443Z,8.95
2022-10-16T08:11:36.520Z,11.38
2022-10-16T08:14:04.560Z,8.02
2022-10-16T08:16:32.885Z,7.95
2022-10-16T08:19:02.333Z,7.80
2022-10-16T08:21:30.331Z,9.88
2022-10-16T08:23:58.772Z,8.07
2022-10-16T08:26:27.829Z,8.23
2022-10-16T08:28:56.233Z,8.50
2022-10-16T08:31:24.307Z,7.18
2022-10-16T08:33:53.315Z,7.13
2022-10-16T08:36:22.825Z,6.70
2022-10-16T08:38:51.571Z,7.70
2022-10-16T08:41:28.692Z,7.50
2022-10-16T08:44:18.698Z,7.93
2022-10-16T08:46:50.572Z,7.50
2022-10-16T08:49:18.888Z,8.30
2022-10-16T08:51:50.459Z,7.90
2022-10-16T08:54:25.361Z,8.65
2022-10-16T08:56:53.369Z,7.90
2022-10-16T08:59:21.413Z,7.85
2022-10-16T09:01:51.635Z,7.38
2022-10-16T09:04:56.859Z,7.05
2022-10-16T09:07:29.028Z,10.60
2022-10-16T09:10:04.391Z,7.03
2022-10-16T09:12:36.025Z,6.60
2022-10-16T09:15:08.977Z,8.15
2022-10-16T09:17:45.325Z,7.13
2022-10-16T09:20:21.517Z,8.80
2022-10-16T09:22:50.850Z,17.00
2022-10-16T09:25:22.208Z,10.73
2022-10-16T09:27:51.229Z,7.65
2022-10-16T09:30:20.132Z,10.05
2022-10-16T09:32:50.180Z,19.15
2022-10-16T09:35:20.097Z,10.00
2022-10-16T09:37:53.006Z,13.00
2022-10-16T09:40:28.082Z,14.15
2022-10-16T09:43:00.068Z,14.88
2022-10-16T09:45:28.126Z,11.35
2022-10-16T09:47:57.823Z,14.20
2022-10-16T09:50:27.506Z,17.70
2022-10-16T09:53:12.843Z,11.73
2022-10-16T09:55:50.948Z,18.65
2022-10-16T09:58:19.034Z,13.40
2022-10-16T10:00:51.563Z,12.30
2022-10-16T10:03:32.434Z,16.13
2022-10-16T10:06:02.165Z,11.27
2022-10-16T10:08:31.920Z,12.25
2022-10-16T10:10:59.937Z,16.70
2022-10-16T10:13:28.082Z,11.63
2022-10-16T10:15:56.084Z,13.40
2022-10-16T10:18:25.139Z,12.70
2022-10-16T10:20:59.946Z,17.30
2022-10-16T10:23:28.847Z,12.63
2022-10-16T10:25:59.487Z,14.60
2022-10-16T10:28:43.973Z,14.32
2022-10-16T10:31:14.806Z,14.30
2022-10-16T10:33:45.530Z,14.55
2022-10-16T10:36:22.649Z,12.02
2022-10-16T10:38:52.583Z,12.75
2022-10-16T10:41:50.106Z,12.07
2022-10-16T10:44:21.258Z,13.02
2022-10-16T10:46:52.300Z,13.90
2022-10-16T10:49:35.238Z,12.07
2022-10-16T10:52:09.733Z,11.98
2022-10-16T10:54:40.146Z,12.57
2022-10-16T10:57:12.402Z,11.07
2022-10-16T10:59:48.918Z,15.80
2022-10-16T11:02:20.285Z,11.23
2022-10-16T11:05:08.999Z,18.08
2022-10-16T11:07:38.868Z,18.75
2022-10-16T11:10:10.411Z,20.45
2022-10-16T11:12:41.187Z,18.70
2022-10-16T11:15:13.709Z,16.67
2022-10-16T11:17:43.155Z,18.27
2022-10-16T11:20:15.702Z,20.55
2022-10-16T11:22:44.673Z,15.23
2022-10-16T11:25:16.126Z,25.33
2022-10-16T11:27:48.437Z,14.13
2022-10-16T11:30:18.503Z,18.15
2022-10-16T11:32:54.787Z,20.48
2022-10-16T11:35:26.665Z,15.20
2022-10-16T11:37:54.788Z,19.55
2022-10-16T11:40:25.818Z,17.65
2022-10-16T11:42:59.515Z,12.32
2022-10-16T11:45:31.191Z,15.75
2022-10-16T11:48:02.904Z,15.40
2022-10-16T11:50:33.209Z,15.18
2022-10-16T11:53:03.766Z,16.95
2022-10-16T11:55:33.247Z,15.15
2022-10-16T11:58:04.477Z,13.27
2022-10-16T12:00:35.293Z,15.07
2022-10-16T12:03:06.686Z,17.10
2022-10-16T12:05:38.033Z,16.42
2022-10-16T12:08:11.901Z,17.23
2022-10-16T12:10:40.963Z,20.63
2022-10-16T12:13:34.846Z,21.42
2022-10-16T12:16:22.406Z,20.83
2022-10-16T12:18:50.886Z,18.30
2022-10-16T12:21:20.141Z,15.80
2022-10-16T12:23:51.810Z,16.10
2022-10-16T12:26:26.592Z,14.40
2022-10-16T12:28:56.174Z,14.77
2022-10-16T12:31:25.266Z,14.57
2022-10-16T12:33:59.837Z,14.55
2022-10-16T12:36:31.573Z,13.70
2022-10-16T12:38:59.606Z,13.52
2022-10-16T12:41:29.036Z,11.70
2022-10-16T12:43:58.613Z,12.30
2022-10-16T12:46:37.220Z,12.00
2022-10-16T12:49:25.578Z,12.73
2022-10-16T12:51:53.675Z,18.85
2022-10-16T12:54:25.161Z,14.30
2022-10-16T12:57:00.172Z,18.98
2022-10-16T12:59:35.450Z,17.20
2022-10-16T13:02:30.195Z,12.52
2022-10-16T13:05:08.269Z,11.35
2022-10-16T13:07:48.900Z,13.77
2022-10-16T13:10:20.910Z,13.38
2022-10-16T13:13:33.547Z,12.13
2022-10-16T13:16:12.469Z,15.27
2022-10-16T13:18:44.320Z,14.98
2022-10-16T13:21:20.914Z,14.57
2022-10-16T13:23:52.552Z,15.95
2022-10-16T13:26:25.725Z,15.65
2022-10-16T13:28:53.821Z,15.38
2022-10-16T13:31:24.849Z,16.95
2022-10-16T13:33:55.639Z,16.45
2022-10-16T13:36:24.825Z,22.55
2022-10-16T13:39:12.223Z,12.57
2022-10-16T13:41:40.136Z,14.18
2022-10-16T13:44:13.978Z,15.43
2022-10-16T13:46:43.233Z,13.15
2022-10-16T13:49:14.788Z,18.45
2022-10-16T13:51:42.656Z,11.43
2022-10-16T13:54:11.880Z,14.32
2022-10-16T13:56:40.805Z,16.65
2022-10-16T13:59:09.379Z,15.27
2022-10-16T14:01:41.290Z,17.98
2022-10-16T14:04:11.360Z,13.88
2022-10-16T14:06:42.109Z,9.90
2022-10-16T14:09:14.081Z,13.90
2022-10-16T14:11:46.907Z,13.98
2022-10-16T14:14:14.847Z,15.63
2022-10-16T14:16:43.198Z,12.07
2022-10-16T14:19:20.098Z,15.57
2022-10-16T14:21:48.048Z,13.63
2022-10-16T14:24:16.247Z,16.23
2022-10-16T14:26:49.692Z,13.13
2022-10-16T14:29:20.596Z,14.57
2022-10-16T14:31:56.663Z,11.95
2022-10-16T14:34:28.421Z,12.73
2022-10-16T14:36:56.816Z,10.77
2022-10-16T14:39:25.043Z,12.70
2022-10-16T14:41:53.521Z,16.10
2022-10-16T14:44:21.414Z,10.70
2022-10-16T14:46:49.335Z,15.20
2022-10-16T14:49:18.796Z,14.32
2022-10-16T14:51:48.151Z,15.43
2022-10-16T14:54:16.454Z,14.65
2022-10-16T14:56:48.144Z,15.02
2022-10-16T14:59:18.114Z,14.02
2022-10-16T15:01:46.085Z,17.48
2022-10-16T15:04:14.305Z,16.05
2022-10-16T15:06:42.187Z,14.68
2022-10-16T15:09:11.689Z,18.90
2022-10-16T15:11:39.551Z,16.67
2022-10-16T15:14:07.910Z,18.38
2022-10-16T15:16:35.789Z,20.73
2022-10-16T15:19:03.709Z,26.10
2022-10-16T15:21:32.212Z,24.55
2022-10-16T15:24:00.365Z,20.02
2022-10-16T15:26:30.176Z,23.73
2022-10-16T15:28:58.160Z,23.90
2022-10-16T15:31:26.222Z,24.25
2022-10-16T15:33:54.651Z,26.30
2022-10-16T15:36:29.106Z,27.90
2022-10-16T15:38:57.054Z,32.00
2022-10-16T15:41:25.001Z,29.27
2022-10-16T15:43:54.250Z,33.80
2022-10-16T15:46:22.803Z,30.33
2022-10-16T15:48:51.007Z,35.22
2022-10-16T15:51:19.309Z,37.30
2022-10-16T15:53:47.892Z,39.80
2022-10-16T15:56:16.229Z,37.60
2022-10-16T15:58:44.319Z,42.65
2022-10-16T16:01:13.697Z,47.15
2022-10-16T16:03:41.882Z,44.22
2022-10-16T16:06:10.400Z,45.70
2022-10-16T16:08:38.461Z,54.13
2022-10-16T16:11:07.443Z,56.05
2022-10-16T16:13:35.400Z,50.65
2022-10-16T16:16:03.254Z,57.72
2022-10-16T16:18:32.546Z,64.85
2022-10-16T16:21:00.396Z,62.65
2022-10-16T16:23:28.244Z,68.50
2022-10-16T16:26:05.633Z,65.13
2022-10-16T16:28:33.639Z,66.57
2022-10-16T16:31:01.749Z,72.95
2022-10-16T16:33:29.679Z,72.35
2022-10-16T16:36:02.428Z,74.28
2022-10-16T16:38:30.298Z,73.43
2022-10-16T16:40:58.289Z,85.00
2022-10-16T16:43:26.475Z,97.03
2022-10-16T16:45:54.759Z,75.15
2022-10-16T16:48:22.751Z,83.32
2022-10-16T16:50:50.661Z,90.75
2022-10-16T16:53:19.879Z,88.82
2022-10-16T16:55:47.768Z,91.45
2022-10-16T16:58:15.664Z,100.20
2022-10-16T17:00:56.512Z,96.70
2022-10-16T17:03:24.911Z,98.50
2022-10-16T17:05:59.235Z,99.93
2022-10-16T17:08:29.168Z,104.93
2022-10-16T17:10:57.680Z,108.47
2022-10-16T17:13:25.696Z,105.90
2022-10-16T17:15:54.063Z,108.38
2022-10-16T17:18:21.990Z,110.90
2022-10-16T17:20:49.891Z,119.18
2022-10-16T17:23:18.414Z,120.95
2022-10-16T17:25:47.949Z,130.95
2022-10-16T17:28:15.824Z,117.20
2022-10-16T17:30:43.793Z,120.80
2022-10-16T17:33:12.304Z,131.50
2022-10-16T17:35:40.417Z,142.40
2022-10-16T17:38:08.370Z,146.40
2022-10-16T17:40:36.498Z,139.57
2022-10-16T17:43:06.305Z,147.98
2022-10-16T17:45:37.275Z,153.93
2022-10-16T17:48:07.439Z,147.07
2022-10-16T17:50:35.337Z,141.98
2022-10-16T17:53:03.180Z,151.30
2022-10-16T17:55:31.069Z,154.00
2022-10-16T17:57:58.969Z,151.35
2022-10-16T18:00:28.184Z,157.38
2022-10-16T18:02:56.046Z,158.40
2022-10-16T18:05:23.923Z,152.38
2022-10-16T18:07:51.838Z,161.85
2022-10-16T18:10:21.103Z,154.30
2022-10-16T18:12:49.281Z,160.13
2022-10-16T18:15:17.224Z,165.40
2022-10-16T18:17:46.535Z,167.02
2022-10-16T18:20:14.479Z,163.70
2022-10-16T18:22:42.382Z,171.73
2022-10-16T18:25:10.575Z,172.85
2022-10-16T18:27:38.548Z,180.13
2022-10-16T18:30:07.597Z,184.45
2022-10-16T18:32:35.933Z,186.32
2022-10-16T18:35:05.505Z,180.38
2022-10-16T18:37:33.421Z,186.75
2022-10-16T18:40:01.289Z,189.68
2022-10-16T18:42:29.167Z,197.45
2022-10-16T18:44:56.995Z,185.60
2022-10-16T18:47:25.228Z,198.88
2022-10-16T18:49:53.416Z,199.43
2022-10-16T18:52:23.878Z,202.70
2022-10-16T18:54:51.794Z,206.50
2022-10-16T18:57:19.639Z,202.80
2022-10-16T18:59:47.599Z,212.05
2022-10-16T19:02:18.243Z,203.40
2022-10-16T19:04:46.511Z,217.20
2022-10-16T19:07:17.837Z,213.05
2022-10-16T19:09:48.255Z,210.98
2022-10-16T19:12:18.846Z,216.70
2022-10-16T19:14:48.954Z,220.77
2022-10-16T19:17:21.007Z,216.07
2022-10-16T19:19:48.986Z,217.30
2022-10-16T19:22:28.134Z,224.23
2022-10-16T19:24:57.937Z,219.13
2022-10-16T19:27:25.854Z,229.00
2022-10-16T19:29:53.868Z,229.05
2022-10-16T19:32:21.829Z,234.13
2022-10-16T19:34:51.285Z,227.52
2022-10-16T19:37:25.648Z,232.00
2022-10-16T19:39:53.516Z,225.70
2022-10-16T19:42:22.841Z,223.07
2022-10-16T19:44:50.793Z,238.18
2022-10-16T19:47:20.870Z,235.30
2022-10-16T19:49:52.519Z,228.77
2022-10-16T19:52:22.166Z,226.77
2022-10-16T19:54:51.730Z,233.02
2022-10-16T19:57:19.654Z,224.02
2022-10-16T19:59:52.507Z,230.07
2022-10-16T20:02:20.455Z,221.25
2022-10-16T20:04:48.403Z,227.25
2022-10-16T20:07:16.455Z,226.85
2022-10-16T20:09:44.316Z,221.00
2022-10-16T20:12:12.254Z,222.13
2022-10-16T20:14:40.291Z,217.63
2022-10-16T20:17:09.600Z,219.23
2022-10-16T20:19:39.524Z,227.13
2022-10-16T20:22:07.600Z,219.88
2022-10-16T20:24:35.521Z,214.57
2022-10-16T20:27:03.481Z,225.30
2022-10-16T20:29:31.376Z,233.95
2022-10-16T20:31:59.323Z,232.07
2022-10-16T20:34:28.788Z,235.68
2022-10-16T20:36:56.673Z,223.63
2022-10-16T20:39:24.539Z,228.75
2022-10-16T20:41:52.417Z,220.13
2022-10-16T20:44:20.295Z,218.75
2022-10-16T20:46:48.261Z,216.68
2022-10-16T20:49:39.322Z,218.13
2022-10-16T20:52:05.524Z,212.43
2022-10-16T20:54:33.378Z,224.85
2022-10-16T20:57:01.237Z,222.63
2022-10-16T20:59:29.099Z,210.52
2022-10-16T21:01:57.153Z,219.95
2022-10-16T21:04:25.143Z,208.63
2022-10-16T21:06:53.066Z,214.98
2022-10-16T21:09:22.375Z,207.43
2022-10-16T21:11:50.249Z,200.40
2022-10-16T21:14:18.196Z,201.02
2022-10-16T21:16:46.060Z,190.10
2022-10-16T21:19:14.765Z,194.25
2022-10-16T21:21:42.665Z,197.98
2022-10-16T21:24:13.472Z,186.75
2022-10-16T21:26:45.764Z,189.90
2022-10-16T21:29:13.673Z,190.80
2022-10-16T21:31:41.591Z,191.55
2022-10-16T21:34:09.473Z,196.63
2022-10-16T21:36:38.359Z,185.15
2022-10-16T21:39:07.419Z,183.40
2022-10-16T21:41:35.654Z,189.88
2022-10-16T21:44:05.443Z,190.05
2022-10-16T21:46:34.106Z,179.57
2022-10-16T21:49:02.800Z,172.35
2022-10-16T21:51:32.420Z,170.82
2022-10-16T21:54:00.342Z,176.25
2022-10-16T21:56:28.260Z,169.15
2022-10-16T21:58:56.105Z,177.95
2022-10-16T22:01:25.942Z,174.45
2022-10-16T22:03:54.609Z,171.75
2022-10-16T22:06:23.396Z,167.43
2022-10-16T22:08:51.971Z,164.02
2022-10-16T22:11:22.369Z,167.88
2022-10-16T22:13:54.108Z,168.55
2022-10-16T22:16:26.476Z,152.05
2022-10-16T22:18:54.693Z,162.57
2022-10-16T22:21:22.659Z,156.60
2022-10-16T22:23:50.525Z,152.88
2022-10-16T22:26:18.376Z,152.63
2022-10-16T22:28:46.313Z,157.10
2022-10-16T22:31:14.902Z,148.40
2022-10-16T22:33:44.151Z,146.55
2022-10-16T22:36:13.525Z,149.50
2022-10-16T22:38:41.625Z,147.93
2022-10-16T22:41:10.110Z,145.82
2022-10-16T22:43:38.211Z,143.10
2022-10-16T22:46:07.558Z,153.52
2022-10-16T22:48:35.692Z,143.80
2022-10-16T22:51:05.061Z,143.07
2022-10-16T22:53:32.935Z,138.15
2022-10-16T22:56:00.912Z,147.35
2022-10-16T22:58:28.788Z,141.55
2022-10-16T23:03:25.636Z,140.02
2022-10-16T23:05:53.556Z,144.30
2022-10-16T23:08:22.778Z,133.18
2022-10-16T23:10:50.690Z,139.38
2022-10-16T23:13:18.546Z,134.32
2022-10-16T23:15:46.504Z,134.73
2022-10-16T23:18:14.361Z,139.15
2022-10-16T23:20:42.426Z,132.80
2022-10-16T23:23:10.346Z,134.75
2022-10-16T23:25:48.163Z,127.78
2022-10-16T23:30:48.809Z,129.60
2022-10-16T23:33:16.667Z,127.13
2022-10-16T23:35:44.566Z,133.45
2022-10-16T23:38:12.415Z,134.05
2022-10-16T23:40:41.682Z,131.50
2022-10-16T23:43:09.532Z,127.53
2022-10-16T23:45:37.406Z,133.80
2022-10-16T23:48:05.337Z,122.53
2022-10-16T23:50:33.208Z,127.93
2022-10-16T23:53:03.357Z,132.68
2022-10-16T23:55:34.376Z,121.22
2022-10-16T23:58:03.727Z,128.20
